<?xml version="1.0" encoding="UTF-8" standalone="no" ?>
<gpx xmlns="http://www.topografix.com/GPX/1/1" xmlns:xsi="http://www.w3.org/2001/XMLSchema-instance" xsi:schemaLocation="http://www.topografix.com/GPX/1/1 http://www.topografix.com/GPX/1/1/gpx.xsd" version="1.1" creator="VisuGPX - https://www.visugpx.com">
  <metadata>
    <name>12508935-VTT Marie 1</name>
  </metadata>
  <trk>
    <name><![CDATA[12508935-VTT Marie 1]]></name>
    <trkseg>
      <trkpt lat="48.44725" lon="-0.06054">
        <ele>200</ele>
        <time>2021-02-05T12:47:22Z</time>
      </trkpt>
      <trkpt lat="48.44799" lon="-0.06135">
        <ele>203</ele>
        <time>2021-02-05T12:47:43Z</time>
      </trkpt>
      <trkpt lat="48.44668" lon="-0.06406">
        <ele>205</ele>
        <time>2021-02-05T12:48:35Z</time>
      </trkpt>
      <trkpt lat="48.45041" lon="-0.06616">
        <ele>216</ele>
        <time>2021-02-05T12:50:08Z</time>
      </trkpt>
      <trkpt lat="48.45112" lon="-0.06835">
        <ele>225</ele>
        <time>2021-02-05T12:50:46Z</time>
      </trkpt>
      <trkpt lat="48.45101" lon="-0.07097">
        <ele>246</ele>
        <time>2021-02-05T12:51:27Z</time>
      </trkpt>
      <trkpt lat="48.45044" lon="-0.07384">
        <ele>262</ele>
        <time>2021-02-05T12:52:13Z</time>
      </trkpt>
      <trkpt lat="48.45038" lon="-0.07526">
        <ele>277</ele>
        <time>2021-02-05T12:52:35Z</time>
      </trkpt>
      <trkpt lat="48.4501" lon="-0.07607">
        <ele>284</ele>
        <time>2021-02-05T12:52:49Z</time>
      </trkpt>
      <trkpt lat="48.45004" lon="-0.0774">
        <ele>293</ele>
        <time>2021-02-05T12:53:10Z</time>
      </trkpt>
      <trkpt lat="48.44994" lon="-0.07951">
        <ele>314</ele>
        <time>2021-02-05T12:53:43Z</time>
      </trkpt>
      <trkpt lat="48.45019" lon="-0.08157">
        <ele>327</ele>
        <time>2021-02-05T12:54:15Z</time>
      </trkpt>
      <trkpt lat="48.45039" lon="-0.08251">
        <ele>331</ele>
        <time>2021-02-05T12:54:30Z</time>
      </trkpt>
      <trkpt lat="48.44991" lon="-0.08389">
        <ele>344</ele>
        <time>2021-02-05T12:54:55Z</time>
      </trkpt>
      <trkpt lat="48.45036" lon="-0.08552">
        <ele>345</ele>
        <time>2021-02-05T12:55:22Z</time>
      </trkpt>
      <trkpt lat="48.45042" lon="-0.08826">
        <ele>350</ele>
        <time>2021-02-05T12:56:04Z</time>
      </trkpt>
      <trkpt lat="48.45031" lon="-0.08912">
        <ele>353</ele>
        <time>2021-02-05T12:56:18Z</time>
      </trkpt>
      <trkpt lat="48.44973" lon="-0.09024">
        <ele>364</ele>
        <time>2021-02-05T12:56:40Z</time>
      </trkpt>
      <trkpt lat="48.44936" lon="-0.09204">
        <ele>373</ele>
        <time>2021-02-05T12:57:09Z</time>
      </trkpt>
      <trkpt lat="48.44853" lon="-0.0935">
        <ele>381</ele>
        <time>2021-02-05T12:57:39Z</time>
      </trkpt>
      <trkpt lat="48.44856" lon="-0.09483">
        <ele>376</ele>
        <time>2021-02-05T12:58:00Z</time>
      </trkpt>
      <trkpt lat="48.44863" lon="-0.09636">
        <ele>371</ele>
        <time>2021-02-05T12:58:23Z</time>
      </trkpt>
      <trkpt lat="48.44846" lon="-0.09756">
        <ele>367</ele>
        <time>2021-02-05T12:58:42Z</time>
      </trkpt>
      <trkpt lat="48.44846" lon="-0.09945">
        <ele>358</ele>
        <time>2021-02-05T12:59:12Z</time>
      </trkpt>
      <trkpt lat="48.4482" lon="-0.10074">
        <ele>356</ele>
        <time>2021-02-05T12:59:32Z</time>
      </trkpt>
      <trkpt lat="48.4482" lon="-0.10237">
        <ele>346</ele>
        <time>2021-02-05T12:59:58Z</time>
      </trkpt>
      <trkpt lat="48.44803" lon="-0.10417">
        <ele>340</ele>
        <time>2021-02-05T13:00:26Z</time>
      </trkpt>
      <trkpt lat="48.44777" lon="-0.10589">
        <ele>333</ele>
        <time>2021-02-05T13:00:53Z</time>
      </trkpt>
      <trkpt lat="48.44774" lon="-0.10726">
        <ele>330</ele>
        <time>2021-02-05T13:01:14Z</time>
      </trkpt>
      <trkpt lat="48.44777" lon="-0.10775">
        <ele>330</ele>
        <time>2021-02-05T13:01:22Z</time>
      </trkpt>
      <trkpt lat="48.44848" lon="-0.10886">
        <ele>330</ele>
        <time>2021-02-05T13:01:46Z</time>
      </trkpt>
      <trkpt lat="48.44854" lon="-0.11058">
        <ele>340</ele>
        <time>2021-02-05T13:02:13Z</time>
      </trkpt>
      <trkpt lat="48.44866" lon="-0.11204">
        <ele>351</ele>
        <time>2021-02-05T13:02:35Z</time>
      </trkpt>
      <trkpt lat="48.44877" lon="-0.11474">
        <ele>356</ele>
        <time>2021-02-05T13:03:17Z</time>
      </trkpt>
      <trkpt lat="48.44863" lon="-0.1162">
        <ele>364</ele>
        <time>2021-02-05T13:03:40Z</time>
      </trkpt>
      <trkpt lat="48.44877" lon="-0.11727">
        <ele>364</ele>
        <time>2021-02-05T13:03:57Z</time>
      </trkpt>
      <trkpt lat="48.4484" lon="-0.11796">
        <ele>369</ele>
        <time>2021-02-05T13:04:11Z</time>
      </trkpt>
      <trkpt lat="48.44848" lon="-0.11916">
        <ele>374</ele>
        <time>2021-02-05T13:04:29Z</time>
      </trkpt>
      <trkpt lat="48.44894" lon="-0.12126">
        <ele>378</ele>
        <time>2021-02-05T13:05:04Z</time>
      </trkpt>
      <trkpt lat="48.44937" lon="-0.12478">
        <ele>388</ele>
        <time>2021-02-05T13:05:59Z</time>
      </trkpt>
      <trkpt lat="48.44979" lon="-0.12616">
        <ele>392</ele>
        <time>2021-02-05T13:06:23Z</time>
      </trkpt>
      <trkpt lat="48.45164" lon="-0.13345">
        <ele>394</ele>
        <time>2021-02-05T13:08:24Z</time>
      </trkpt>
      <trkpt lat="48.45042" lon="-0.13388">
        <ele>391</ele>
        <time>2021-02-05T13:08:53Z</time>
      </trkpt>
      <trkpt lat="48.44988" lon="-0.14015">
        <ele>391</ele>
        <time>2021-02-05T13:10:31Z</time>
      </trkpt>
      <trkpt lat="48.44641" lon="-0.13972">
        <ele>374</ele>
        <time>2021-02-05T13:11:52Z</time>
      </trkpt>
      <trkpt lat="48.44686" lon="-0.13474">
        <ele>364</ele>
        <time>2021-02-05T13:13:10Z</time>
      </trkpt>
      <trkpt lat="48.44749" lon="-0.12929">
        <ele>367</ele>
        <time>2021-02-05T13:14:36Z</time>
      </trkpt>
      <trkpt lat="48.44766" lon="-0.12706">
        <ele>371</ele>
        <time>2021-02-05T13:15:10Z</time>
      </trkpt>
      <trkpt lat="48.44746" lon="-0.12568">
        <ele>371</ele>
        <time>2021-02-05T13:15:32Z</time>
      </trkpt>
      <trkpt lat="48.4476" lon="-0.12388">
        <ele>380</ele>
        <time>2021-02-05T13:16:00Z</time>
      </trkpt>
      <trkpt lat="48.44575" lon="-0.12315">
        <ele>367</ele>
        <time>2021-02-05T13:16:45Z</time>
      </trkpt>
      <trkpt lat="48.44428" lon="-0.1187">
        <ele>333</ele>
        <time>2021-02-05T13:18:02Z</time>
      </trkpt>
      <trkpt lat="48.4444" lon="-0.11746">
        <ele>336</ele>
        <time>2021-02-05T13:18:21Z</time>
      </trkpt>
      <trkpt lat="48.44417" lon="-0.11583">
        <ele>333</ele>
        <time>2021-02-05T13:18:47Z</time>
      </trkpt>
      <trkpt lat="48.44405" lon="-0.11458">
        <ele>328</ele>
        <time>2021-02-05T13:19:07Z</time>
      </trkpt>
      <trkpt lat="48.44385" lon="-0.1136">
        <ele>318</ele>
        <time>2021-02-05T13:19:23Z</time>
      </trkpt>
      <trkpt lat="48.44451" lon="-0.11167">
        <ele>316</ele>
        <time>2021-02-05T13:19:56Z</time>
      </trkpt>
      <trkpt lat="48.44434" lon="-0.10819">
        <ele>296</ele>
        <time>2021-02-05T13:20:50Z</time>
      </trkpt>
      <trkpt lat="48.44479" lon="-0.10747">
        <ele>304</ele>
        <time>2021-02-05T13:21:06Z</time>
      </trkpt>
      <trkpt lat="48.44411" lon="-0.10559">
        <ele>315</ele>
        <time>2021-02-05T13:21:39Z</time>
      </trkpt>
      <trkpt lat="48.4424" lon="-0.1031">
        <ele>308</ele>
        <time>2021-02-05T13:22:34Z</time>
      </trkpt>
      <trkpt lat="48.44286" lon="-0.10035">
        <ele>321</ele>
        <time>2021-02-05T13:23:18Z</time>
      </trkpt>
      <trkpt lat="48.44343" lon="-0.09803">
        <ele>332</ele>
        <time>2021-02-05T13:23:57Z</time>
      </trkpt>
      <trkpt lat="48.4442" lon="-0.0964">
        <ele>343</ele>
        <time>2021-02-05T13:24:28Z</time>
      </trkpt>
      <trkpt lat="48.44399" lon="-0.0912">
        <ele>313</ele>
        <time>2021-02-05T13:25:48Z</time>
      </trkpt>
      <trkpt lat="48.44427" lon="-0.08738">
        <ele>298</ele>
        <time>2021-02-05T13:26:48Z</time>
      </trkpt>
      <trkpt lat="48.44555" lon="-0.08171">
        <ele>297</ele>
        <time>2021-02-05T13:28:21Z</time>
      </trkpt>
      <trkpt lat="48.44453" lon="-0.08178">
        <ele>283</ele>
        <time>2021-02-05T13:28:45Z</time>
      </trkpt>
      <trkpt lat="48.44507" lon="-0.08032">
        <ele>275</ele>
        <time>2021-02-05T13:29:10Z</time>
      </trkpt>
      <trkpt lat="48.44578" lon="-0.07818">
        <ele>265</ele>
        <time>2021-02-05T13:29:48Z</time>
      </trkpt>
      <trkpt lat="48.44737" lon="-0.07333">
        <ele>224</ele>
        <time>2021-02-05T13:31:11Z</time>
      </trkpt>
      <trkpt lat="48.44856" lon="-0.07058">
        <ele>214</ele>
        <time>2021-02-05T13:32:02Z</time>
      </trkpt>
      <trkpt lat="48.45027" lon="-0.06668">
        <ele>216</ele>
        <time>2021-02-05T13:33:15Z</time>
      </trkpt>
      <trkpt lat="48.4466" lon="-0.06466">
        <ele>204</ele>
        <time>2021-02-05T13:34:46Z</time>
      </trkpt>
      <trkpt lat="48.44819" lon="-0.0614">
        <ele>204</ele>
        <time>2021-02-05T13:35:49Z</time>
      </trkpt>
    </trkseg>
  </trk>
</gpx>